Terminal Aerodrome Forecast
Issued by NWS

Home | Current Version | Previous Version | Text Only | Print | Product List | Glossary On
Versions: 1 2 3 4 5 6 7 8 9 10 11 12 13 14 15 16 17 18 19 20
000
FTUS42 KMHX 170626 AAA
TAFOAJ
TAF AMD
KOAJ 170626Z 1706/1806 00000KT 2SM BR SCT003
     FM170700 00000KT 1/2SM FG BKN003
     FM171300 VRB04KT 5SM BR SCT007 BKN100
     FM171400 VRB04KT P6SM SCT015
     FM171700 16006KT P6SM SCT035 BKN090
      AMD LTD TO CLD VIS AND WIND=

USA.gov is the U.S. government's official web portal to all federal, state and local government web resources and services.